Time;durP1;ratioP1;P1;durP2;ratioP2;P2;SDS_P1;SDS_P2;PMS_P1;PMS_P2;Temp;Humidity;BMP_temperature;BMP_pressure;BME280_temperature;BME280_humidity;BME280_pressure;Samples;Min_cycle;Max_cycle;Signal;HPM_P1;HPM_P2
2022/04/10 00:00:28;;;;;;;15.10;6.23;;;;;;;0.83;90.22;101705.47;5038815;28;20044;-79
2022/04/10 00:02:54;;;;;;;15.73;6.80;;;;;;;0.94;90.03;101725.06;5037450;28;20041;-79
2022/04/10 00:05:19;;;;;;;14.30;6.33;;;;;;;0.94;89.52;101722.41;5038524;28;20396;-80
2022/04/10 00:07:45;;;;;;;13.83;6.27;;;;;;;0.96;89.40;101720.47;5037866;28;20090;-79
2022/04/10 00:10:10;;;;;;;17.53;6.77;;;;;;;0.94;89.59;101719.75;5038371;28;20075;-78
2022/04/10 00:12:36;;;;;;;14.73;6.23;;;;;;;0.94;89.66;101722.41;5038343;28;20068;-79
2022/04/10 00:15:03;;;;;;;19.40;7.10;;;;;;;0.93;89.32;101718.06;5053273;28;20369;-78
2022/04/10 00:17:28;;;;;;;14.77;6.50;;;;;;;0.94;89.32;101719.75;5037133;28;20037;-80
2022/04/10 00:19:54;;;;;;;14.37;6.67;;;;;;;0.91;89.71;101720.88;5038098;28;20295;-79
2022/04/10 00:22:19;;;;;;;15.83;6.53;;;;;;;0.91;89.95;101723.53;5037722;28;20388;-78
2022/04/10 00:24:45;;;;;;;16.97;6.87;;;;;;;0.72;90.09;101697.53;5037523;28;20029;-79
2022/04/10 00:27:13;;;;;;;18.03;7.03;;;;;;;0.80;89.99;101713.75;5037197;28;20033;-80
2022/04/10 00:29:40;;;;;;;15.23;6.93;;;;;;;0.79;90.08;101716.53;5036330;28;20028;-79
2022/04/10 00:32:06;;;;;;;17.20;6.80;;;;;;;0.81;90.28;101733.25;5037263;28;20295;-78
2022/04/10 00:34:32;;;;;;;15.53;7.17;;;;;;;0.75;90.74;101723.06;5037397;28;20303;-80
2022/04/10 00:36:57;;;;;;;20.00;7.30;;;;;;;0.76;90.11;101733.66;5036999;28;20302;-80
2022/04/10 00:39:23;;;;;;;18.40;7.03;;;;;;;0.75;89.82;101721.28;5037681;28;20035;-81
2022/04/10 00:41:49;;;;;;;18.97;7.17;;;;;;;0.72;90.19;101707.34;5037636;28;20041;-80
2022/04/10 00:44:15;;;;;;;17.50;6.63;;;;;;;0.75;90.27;101717.75;5036971;28;20500;-79
2022/04/10 00:46:41;;;;;;;15.20;6.60;;;;;;;0.67;90.09;101702.38;5037325;28;20327;-78
2022/04/10 00:49:07;;;;;;;18.27;7.20;;;;;;;0.73;90.15;101707.22;5036675;28;20072;-79
2022/04/10 00:51:40;;;;;;;15.00;6.90;;;;;;;0.72;90.37;101708.19;5037864;28;20299;-80
2022/04/10 00:54:08;;;;;;;17.07;7.33;;;;;;;0.65;90.55;101707.84;5050740;28;21612;-79
2022/04/10 00:56:34;;;;;;;15.90;7.20;;;;;;;0.70;90.55;101720.81;5037120;28;20494;-79
2022/04/10 00:59:01;;;;;;;20.77;7.43;;;;;;;0.65;90.86;101713.19;5035161;28;20314;-78
2022/04/10 01:01:27;;;;;;;16.93;8.00;;;;;;;0.66;90.65;101714.84;5037420;28;20091;-79
2022/04/10 01:03:53;;;;;;;15.17;7.10;;;;;;;0.61;90.43;101705.53;5036869;28;20295;-81
2022/04/10 01:06:18;;;;;;;14.53;7.17;;;;;;;0.60;90.23;101709.19;5036720;28;20290;-79
2022/04/10 01:08:44;;;;;;;14.67;6.90;;;;;;;0.60;90.16;101715.38;5036008;28;20044;-78
2022/04/10 01:11:09;;;;;;;16.63;7.40;;;;;;;0.60;90.58;101723.38;5035466;28;20097;-79
2022/04/10 01:13:36;;;;;;;15.73;7.37;;;;;;;0.55;90.68;101708.72;5036432;28;20071;-79
2022/04/10 01:16:01;;;;;;;13.27;7.00;;;;;;;0.58;90.89;101706.63;5036441;28;20033;-79
2022/04/10 01:18:27;;;;;;;17.93;7.80;;;;;;;0.56;90.65;101711.25;5051373;28;20963;-80
2022/04/10 01:20:52;;;;;;;15.73;7.77;;;;;;;0.57;90.64;101714.78;5037030;28;20072;-83
2022/04/10 01:23:18;;;;;;;18.10;7.50;;;;;;;0.55;90.64;101706.06;5035093;28;20036;-79
2022/04/10 01:25:44;;;;;;;16.00;7.70;;;;;;;0.55;90.57;101714.06;5035588;28;20044;-80
2022/04/10 01:28:10;;;;;;;14.83;7.10;;;;;;;0.55;90.55;101719.41;5036512;28;20299;-80
2022/04/10 01:30:36;;;;;;;15.70;7.00;;;;;;;0.43;90.54;101703.41;5036402;28;20037;-79
2022/04/10 01:33:01;;;;;;;17.90;8.00;;;;;;;0.56;90.70;101715.72;5035671;28;21724;-80
2022/04/10 01:35:27;;;;;;;17.27;7.87;;;;;;;0.54;90.65;101725.69;5036232;28;20033;-80
2022/04/10 01:37:54;;;;;;;17.90;7.87;;;;;;;0.53;91.11;101724.00;5036635;28;20400;-80
2022/04/10 01:40:20;;;;;;;12.83;7.40;;;;;;;0.51;91.26;101726.78;5036608;28;20033;-80
2022/04/10 01:42:45;;;;;;;17.73;7.97;;;;;;;0.52;91.34;101728.50;5051803;28;20624;-80
2022/04/10 01:45:11;;;;;;;18.13;7.53;;;;;;;0.48;90.94;101727.03;5036276;28;20170;-81
2022/04/10 01:47:37;;;;;;;17.03;7.80;;;;;;;0.48;91.24;101727.03;5036424;28;20037;-79
2022/04/10 01:50:02;;;;;;;17.47;8.13;;;;;;;0.47;91.32;101720.00;5036025;28;20468;-81
2022/04/10 01:52:28;;;;;;;17.13;7.93;;;;;;;0.39;91.58;101717.13;5036096;28;20321;-80
2022/04/10 01:54:53;;;;;;;16.70;7.77;;;;;;;0.46;91.92;101720.97;5035735;28;20052;-80
2022/04/10 01:57:18;;;;;;;16.83;7.37;;;;;;;0.46;91.49;101723.63;5036833;28;20586;-81
2022/04/10 01:59:44;;;;;;;16.50;7.47;;;;;;;0.45;91.38;101733.47;5036119;28;20033;-80
2022/04/10 02:02:09;;;;;;;16.30;7.70;;;;;;;0.42;91.37;101722.19;5035835;28;20467;-79
2022/04/10 02:04:35;;;;;;;17.77;8.00;;;;;;;0.37;92.01;101714.56;5050595;28;20087;-80
2022/04/10 02:07:01;;;;;;;16.37;7.63;;;;;;;0.35;91.88;101719.16;5035456;28;20051;-79
2022/04/10 02:09:26;;;;;;;15.07;7.53;;;;;;;0.38;91.65;101732.28;5035344;28;20986;-79
2022/04/10 02:11:52;;;;;;;17.03;7.60;;;;;;;0.44;91.71;101742.44;5036044;28;20083;-79
2022/04/10 02:14:17;;;;;;;17.57;7.63;;;;;;;0.43;91.75;101735.41;5035479;28;20485;-81
2022/04/10 02:16:42;;;;;;;16.33;7.33;;;;;;;0.45;91.58;101740.59;5036181;28;20464;-80
2022/04/10 02:19:08;;;;;;;11.63;6.37;;;;;;;0.37;91.05;101727.91;5036298;28;20072;-82
2022/04/10 02:21:33;;;;;;;13.77;7.40;;;;;;;0.46;91.74;101739.63;5040089;28;20120;-80
2022/04/10 02:23:58;;;;;;;14.53;7.53;;;;;;;0.40;91.73;101740.97;5040058;28;20128;-81
2022/04/10 02:26:24;;;;;;;16.33;7.37;;;;;;;0.41;91.33;101732.03;5037559;28;20045;-80
2022/04/10 02:28:49;;;;;;;18.83;7.70;;;;;;;0.41;91.48;101731.16;5040233;28;20075;-79
2022/04/10 02:31:14;;;;;;;16.93;8.23;;;;;;;0.37;91.76;101737.69;5055473;28;20373;-80
2022/04/10 02:33:40;;;;;;;17.90;7.97;;;;;;;0.42;91.58;101743.53;5038938;28;20135;-81
2022/04/10 02:36:06;;;;;;;21.83;8.20;;;;;;;0.39;91.53;101741.94;5040313;28;20116;-80
2022/04/10 02:38:31;;;;;;;15.93;7.70;;;;;;;0.37;91.37;101743.91;5039466;28;20087;-82
2022/04/10 02:40:56;;;;;;;17.20;7.80;;;;;;;0.30;91.76;101732.00;5039802;28;20438;-80
2022/04/10 02:43:22;;;;;;;19.80;8.20;;;;;;;0.38;92.09;101742.94;5039529;28;20041;-80
2022/04/10 02:45:47;;;;;;;16.70;8.17;;;;;;;0.37;91.88;101741.25;5040064;28;20037;-82
2022/04/10 02:48:12;;;;;;;16.73;8.40;;;;;;;0.35;91.96;101745.81;5040028;28;20065;-80
2022/04/10 02:50:38;;;;;;;16.03;7.13;;;;;;;0.28;91.77;101740.13;5040134;28;20037;-81
2022/04/10 02:53:04;;;;;;;17.13;8.50;;;;;;;0.34;91.67;101746.81;5039284;28;20036;-81
2022/04/10 02:55:30;;;;;;;18.33;8.50;;;;;;;0.29;91.62;101741.84;5038383;28;20047;-80
2022/04/10 02:57:55;;;;;;;19.43;8.97;;;;;;;0.28;92.05;101748.13;5037738;28;20510;-82
2022/04/10 03:00:21;;;;;;;17.90;8.80;;;;;;;0.29;92.15;101757.00;5039438;28;20075;-81
2022/04/10 03:02:46;;;;;;;21.23;9.40;;;;;;;0.31;92.84;101755.03;5039206;28;20045;-79
2022/04/10 03:05:12;;;;;;;20.40;9.57;;;;;;;0.24;93.13;101751.19;5037646;28;21419;-79
2022/04/10 03:07:37;;;;;;;16.80;9.03;;;;;;;0.30;93.37;101761.34;5038635;28;20083;-79
2022/04/10 03:10:04;;;;;;;18.30;9.37;;;;;;;0.25;93.47;101752.88;5038428;28;20045;-79
2022/04/10 03:12:29;;;;;;;24.40;11.00;;;;;;;0.29;93.84;101751.66;5039185;28;20048;-82
2022/04/10 03:14:55;;;;;;;23.87;11.10;;;;;;;0.31;93.86;101761.25;5038952;28;20728;-83
2022/04/10 03:17:20;;;;;;;18.77;10.70;;;;;;;0.32;93.68;101760.25;5038678;28;20049;-79
2022/04/10 03:19:46;;;;;;;19.00;11.20;;;;;;;0.32;93.99;101770.06;5037475;28;20051;-82
2022/04/10 03:22:11;;;;;;;19.87;11.30;;;;;;;0.30;93.92;101766.66;5039030;28;20443;-81
2022/04/10 03:24:36;;;;;;;21.23;11.77;;;;;;;0.21;94.42;101748.75;5054303;28;20045;-80
2022/04/10 03:27:02;;;;;;;22.30;12.60;;;;;;;0.31;94.37;101763.91;5038914;28;20040;-79
2022/04/10 03:29:27;;;;;;;21.97;12.80;;;;;;;0.35;94.33;101764.50;5037041;28;20044;-79
2022/04/10 03:31:53;;;;;;;22.97;12.60;;;;;;;0.37;94.68;101764.38;5053407;28;20045;-80
2022/04/10 03:34:18;;;;;;;24.73;13.07;;;;;;;0.38;94.50;101771.41;5038165;28;20133;-79
2022/04/10 03:36:44;;;;;;;23.87;13.17;;;;;;;0.37;94.30;101772.38;5039002;28;20098;-80
2022/04/10 03:39:09;;;;;;;23.53;12.77;;;;;;;0.34;94.39;101770.81;5038934;28;20098;-79
2022/04/10 03:41:34;;;;;;;23.00;12.70;;;;;;;0.35;94.42;101764.50;5038841;28;20037;-79
2022/04/10 03:44:00;;;;;;;23.07;13.23;;;;;;;0.15;94.58;101737.63;5041771;28;20049;-81
2022/04/10 03:46:25;;;;;;;22.00;13.57;;;;;;;0.32;94.72;101778.06;5038587;28;20071;-79
2022/04/10 03:48:51;;;;;;;22.03;13.73;;;;;;;0.36;94.75;101776.84;5053967;28;20164;-80
2022/04/10 03:51:16;;;;;;;22.93;14.03;;;;;;;0.35;95.04;101777.81;5038115;28;20556;-80
2022/04/10 03:53:41;;;;;;;22.67;13.37;;;;;;;0.36;94.95;101784.84;5053442;28;20576;-80
2022/04/10 03:56:07;;;;;;;24.80;13.70;;;;;;;0.27;94.92;101772.25;5038110;28;20595;-81
2022/04/10 03:58:32;;;;;;;25.77;13.90;;;;;;;0.19;94.51;101759.56;5038607;28;20607;-79
2022/04/10 04:00:58;;;;;;;22.00;13.40;;;;;;;0.36;94.61;101787.53;5038310;28;20037;-79
2022/04/10 04:03:23;;;;;;;23.07;13.17;;;;;;;0.25;94.73;101776.88;5037103;28;20122;-80
2022/04/10 04:05:49;;;;;;;23.17;13.23;;;;;;;0.32;94.80;101797.56;5038612;28;20045;-80
2022/04/10 04:08:17;;;;;;;21.60;13.13;;;;;;;0.29;94.29;101791.66;5037827;28;20041;-80
2022/04/10 04:10:49;;;;;;;20.47;12.97;;;;;;;0.28;94.30;101789.94;5038054;28;20479;-81
2022/04/10 04:13:14;;;;;;;21.90;13.33;;;;;;;0.28;94.89;101798.78;5052444;28;20378;-80
2022/04/10 04:15:40;;;;;;;25.17;14.10;;;;;;;0.25;94.75;101793.69;5038116;28;20295;-79
2022/04/10 04:18:05;;;;;;;23.10;14.00;;;;;;;0.27;94.87;101799.78;5037500;28;20067;-79
2022/04/10 04:20:31;;;;;;;21.70;14.67;;;;;;;0.27;95.22;101796.25;5038578;28;20066;-79
2022/04/10 04:22:56;;;;;;;25.13;14.37;;;;;;;0.25;95.04;101800.84;5036913;28;20473;-79
2022/04/10 04:25:21;;;;;;;21.10;13.67;;;;;;;0.24;95.26;101791.16;5037678;28;20037;-80
2022/04/10 04:27:47;;;;;;;21.63;13.97;;;;;;;0.23;95.25;101798.31;5037948;28;20037;-80
2022/04/10 04:30:12;;;;;;;21.97;14.10;;;;;;;0.24;95.24;101799.16;5037326;28;21047;-81
2022/04/10 04:32:38;;;;;;;24.43;13.97;;;;;;;0.24;95.27;101800.00;5052721;28;20127;-79
2022/04/10 04:35:04;;;;;;;24.10;14.27;;;;;;;0.24;95.13;101804.50;5037312;28;20029;-82
2022/04/10 04:37:29;;;;;;;22.00;14.53;;;;;;;0.12;95.32;101784.97;5037744;28;20563;-81
2022/04/10 04:39:55;;;;;;;21.60;13.77;;;;;;;0.15;95.15;101798.03;5036964;28;20298;-80
2022/04/10 04:42:20;;;;;;;19.80;13.63;;;;;;;0.21;95.14;101804.75;5052453;28;20044;-79
2022/04/10 04:44:45;;;;;;;20.80;13.37;;;;;;;0.22;94.86;101811.75;5037368;28;20091;-79
2022/04/10 04:47:11;;;;;;;21.80;13.47;;;;;;;0.14;95.14;101809.69;5037453;28;20040;-80
2022/04/10 04:49:36;;;;;;;23.93;14.00;;;;;;;0.19;95.09;101814.66;5035485;28;20056;-79
2022/04/10 04:52:02;;;;;;;22.57;14.30;;;;;;;0.18;95.19;101813.81;5037246;28;20037;-80
2022/04/10 04:54:27;;;;;;;22.53;13.57;;;;;;;0.16;95.02;101816.59;5037503;28;20055;-79
2022/04/10 04:56:53;;;;;;;22.23;14.53;;;;;;;0.16;95.14;101816.59;5036412;28;20535;-80
2022/04/10 04:59:19;;;;;;;20.87;14.23;;;;;;;0.19;95.32;101820.00;5036816;28;20041;-82
2022/04/10 05:01:45;;;;;;;22.30;14.63;;;;;;;0.02;95.84;101789.34;5037687;28;20381;-80
2022/04/10 05:04:11;;;;;;;21.80;14.30;;;;;;;0.14;95.52;101807.88;5036409;28;20473;-81
2022/04/10 05:06:38;;;;;;;21.87;14.57;;;;;;;0.04;95.53;101793.59;5037393;28;20291;-79
2022/04/10 05:09:04;;;;;;;24.10;14.70;;;;;;;0.14;95.84;101810.53;5036878;28;20155;-79
2022/04/10 05:11:29;;;;;;;23.20;14.87;;;;;;;0.21;95.50;101823.41;5051685;28;20292;-81
2022/04/10 05:13:55;;;;;;;22.03;14.77;;;;;;;0.22;95.83;101825.06;5036393;28;21029;-80
2022/04/10 05:16:21;;;;;;;22.90;15.00;;;;;;;0.20;95.67;101819.03;5037167;28;20039;-81
2022/04/10 05:18:47;;;;;;;20.73;13.53;;;;;;;0.27;95.61;101826.44;5036986;28;20052;-79
2022/04/10 05:21:12;;;;;;;23.77;14.03;;;;;;;0.29;95.65;101834.31;5036866;28;20335;-79
2022/04/10 05:23:38;;;;;;;21.00;13.57;;;;;;;0.32;95.94;101832.22;5036124;28;20660;-80
2022/04/10 05:26:03;;;;;;;21.50;15.27;;;;;;;0.37;95.88;101837.22;5036865;28;20048;-79
2022/04/10 05:28:30;;;;;;;23.13;14.83;;;;;;;0.38;96.29;101844.25;5034648;28;20040;-79
2022/04/10 05:30:55;;;;;;;21.60;14.80;;;;;;;0.40;96.09;101849.47;5036647;28;20481;-82
2022/04/10 05:33:21;;;;;;;22.23;14.67;;;;;;;0.38;96.23;101838.06;5035801;28;20296;-82
2022/04/10 05:35:47;;;;;;;23.40;14.47;;;;;;;0.48;96.46;101845.22;5051873;28;20113;-83
2022/04/10 05:38:12;;;;;;;26.87;15.23;;;;;;;0.44;96.47;101835.75;5036089;28;20047;-81
2022/04/10 05:40:38;;;;;;;24.13;15.53;;;;;;;0.59;96.22;101856.84;5036288;28;20647;-79
2022/04/10 05:43:03;;;;;;;22.53;13.93;;;;;;;0.65;96.39;101853.69;5033453;28;20457;-81
2022/04/10 05:45:29;;;;;;;25.70;13.93;;;;;;;0.74;96.10;101854.78;5036259;28;20443;-80
2022/04/10 05:48:19;;;;;;;20.57;13.87;;;;;;;0.81;95.67;101866.66;5034698;28;20041;-81
2022/04/10 05:50:44;;;;;;;22.27;13.37;;;;;;;0.90;95.69;101870.41;5035790;28;20033;-79
2022/04/10 05:53:10;;;;;;;19.83;12.40;;;;;;;0.95;95.34;101862.88;5034708;28;20326;-80
2022/04/10 05:56:19;;;;;;;23.40;13.33;;;;;;;1.06;95.17;101872.69;5034404;28;20050;-80
2022/04/10 05:58:44;;;;;;;17.90;11.37;;;;;;;1.08;94.66;101860.91;5033917;28;20488;-79
2022/04/10 06:01:10;;;;;;;18.57;11.67;;;;;;;1.22;94.57;101880.31;5036022;28;20298;-80
2022/04/10 06:03:35;;;;;;;19.63;11.73;;;;;;;1.31;94.29;101887.56;5035435;28;20136;-79
2022/04/10 06:06:01;;;;;;;19.60;11.10;;;;;;;1.33;94.29;101882.94;5036114;28;20124;-79
2022/04/10 06:08:26;;;;;;;19.80;11.40;;;;;;;1.41;93.76;101885.00;5051045;28;20037;-79
2022/04/10 06:10:51;;;;;;;21.83;10.87;;;;;;;1.52;93.51;101893.81;5036263;28;20508;-80
2022/04/10 06:13:17;;;;;;;17.93;10.17;;;;;;;1.64;93.14;101891.09;5035834;28;20037;-81
2022/04/10 06:15:43;;;;;;;20.13;10.13;;;;;;;1.72;93.17;101902.00;5036429;28;20059;-83
2022/04/10 06:18:08;;;;;;;18.33;9.47;;;;;;;1.83;92.44;101901.09;5033497;28;20299;-79
2022/04/10 06:20:33;;;;;;;19.03;9.37;;;;;;;1.83;92.35;101888.56;5051195;28;20045;-79
2022/04/10 06:23:00;;;;;;;18.23;9.23;;;;;;;2.03;91.83;101907.44;5034517;28;20033;-83
2022/04/10 06:25:26;;;;;;;17.93;8.80;;;;;;;2.15;91.28;101910.91;5035749;28;20662;-81
2022/04/10 06:27:51;;;;;;;15.13;8.90;;;;;;;2.25;91.19;101910.97;5035942;28;20033;-82
2022/04/10 06:30:16;;;;;;;17.63;9.60;;;;;;;2.36;90.88;101916.25;5033025;28;20032;-81
2022/04/10 06:32:42;;;;;;;16.27;9.53;;;;;;;2.47;90.57;101918.84;5035166;28;20033;-80
2022/04/10 06:35:08;;;;;;;17.27;9.43;;;;;;;2.52;89.75;101916.63;5051521;28;20065;-81
2022/04/10 06:37:35;;;;;;;16.93;9.40;;;;;;;2.62;89.17;101927.38;5033354;28;20041;-80
2022/04/10 06:40:00;;;;;;;13.80;8.60;;;;;;;2.56;89.83;101897.63;5033613;28;20037;-83
2022/04/10 06:42:26;;;;;;;15.30;8.40;;;;;;;2.82;88.79;101925.63;5035860;28;20357;-80
2022/04/10 06:44:51;;;;;;;17.93;8.10;;;;;;;2.91;88.47;101931.16;5035596;28;20071;-79
2022/04/10 06:47:17;;;;;;;17.30;8.10;;;;;;;3.00;88.69;101922.34;5035500;28;20076;-80
2022/04/10 06:49:42;;;;;;;17.63;7.97;;;;;;;3.09;87.65;101921.53;5034567;28;20127;-79
2022/04/10 06:52:08;;;;;;;14.33;7.90;;;;;;;3.23;87.17;101922.13;5050821;28;20041;-80
2022/04/10 06:54:33;;;;;;;13.13;7.83;;;;;;;3.37;87.62;101938.66;5035758;28;20047;-81
2022/04/10 06:56:58;;;;;;;14.40;7.80;;;;;;;3.51;86.63;101934.72;5035714;28;20439;-82
2022/04/10 06:59:24;;;;;;;14.03;7.83;;;;;;;3.59;86.11;101930.50;5035309;28;20041;-79
2022/04/10 07:01:49;;;;;;;16.53;7.27;;;;;;;3.71;85.84;101938.28;5034119;28;20041;-79
2022/04/10 07:04:15;;;;;;;14.50;7.47;;;;;;;3.82;86.20;101928.41;5034612;28;20071;-81
2022/04/10 07:06:40;;;;;;;11.97;6.83;;;;;;;3.97;85.18;101944.91;5037590;28;20374;-80
2022/04/10 07:09:05;;;;;;;12.97;6.50;;;;;;;4.05;83.99;101948.59;5038716;28;20040;-79
2022/04/10 07:11:32;;;;;;;16.37;6.97;;;;;;;4.23;85.25;101946.03;5039412;28;20095;-79
2022/04/10 07:13:57;;;;;;;15.03;6.93;;;;;;;4.31;84.71;101934.59;5039094;28;20044;-82
2022/04/10 07:16:22;;;;;;;13.17;6.50;;;;;;;4.43;82.98;101951.38;5037943;28;20103;-82
2022/04/10 07:18:48;;;;;;;12.77;6.50;;;;;;;4.55;82.90;101954.75;5037576;28;20135;-81
2022/04/10 07:21:13;;;;;;;13.43;5.97;;;;;;;4.64;81.63;101950.34;5039221;28;20041;-81
2022/04/10 07:23:46;;;;;;;14.43;6.13;;;;;;;4.79;81.50;101959.63;5037786;28;20040;-82
2022/04/10 07:26:13;;;;;;;12.33;5.30;;;;;;;4.89;81.73;101944.31;5038114;28;20064;-81
2022/04/10 07:28:39;;;;;;;12.13;5.60;;;;;;;5.07;81.45;101952.47;5038623;28;20431;-82
2022/04/10 07:31:06;;;;;;;13.93;5.97;;;;;;;5.19;81.17;101963.00;5038823;28;20033;-81
2022/04/10 07:33:32;;;;;;;14.47;6.10;;;;;;;5.33;81.09;101964.34;5038249;28;20657;-80
2022/04/10 07:35:57;;;;;;;12.17;5.40;;;;;;;5.40;78.20;101970.81;5038378;28;20043;-80
2022/04/10 07:38:23;;;;;;;9.30;5.37;;;;;;;5.53;78.34;101965.91;5038233;28;20045;-82
2022/04/10 07:40:48;;;;;;;13.47;5.30;;;;;;;5.65;78.14;101976.47;5038971;28;20052;-80
2022/04/10 07:43:14;;;;;;;14.00;5.30;;;;;;;5.87;76.78;101980.56;5038797;28;20045;-80
2022/04/10 07:48:23;;;;;;;13.33;4.13;;;;;;;6.18;75.25;101990.97;5038696;28;20052;-83
2022/04/10 07:50:49;;;;;;;10.73;3.83;;;;;;;6.30;72.33;101986.22;5038860;28;20472;-83
2022/04/10 07:53:14;;;;;;;13.17;3.30;;;;;;;6.36;71.46;101986.41;5054109;28;20040;-81
2022/04/10 07:55:40;;;;;;;11.20;4.00;;;;;;;6.36;74.04;101999.88;5038589;28;20037;-84
2022/04/10 07:58:05;;;;;;;9.07;3.80;;;;;;;6.25;72.81;102000.94;5038319;28;20143;-83
2022/04/10 08:00:32;;;;;;;12.20;4.13;;;;;;;6.26;75.14;102007.19;5035839;28;20032;-81
2022/04/10 08:02:59;;;;;;;8.80;3.83;;;;;;;6.10;71.09;102015.13;5037957;28;20180;-82
2022/04/10 08:05:25;;;;;;;9.73;3.60;;;;;;;5.96;72.95;102016.47;5038174;28;20043;-83
2022/04/10 08:07:50;;;;;;;7.33;3.50;;;;;;;5.94;74.95;102023.84;5038457;28;20061;-82
2022/04/10 08:10:16;;;;;;;8.23;3.57;;;;;;;5.98;75.49;102030.63;5037921;28;20510;-81
2022/04/10 08:12:43;;;;;;;9.73;4.40;;;;;;;5.83;76.40;102036.50;5038405;28;20034;-82
2022/04/10 08:15:10;;;;;;;11.73;3.90;;;;;;;5.64;76.34;102040.13;5037590;28;20103;-81
2022/04/10 08:17:35;;;;;;;9.60;3.70;;;;;;;5.61;76.17;102029.69;5053439;28;20043;-82
2022/04/10 08:20:05;;;;;;;9.90;3.30;;;;;;;5.66;76.70;102031.94;5038018;28;20045;-82
2022/04/10 08:22:36;;;;;;;8.87;3.23;;;;;;;5.85;74.87;102037.19;5038082;28;20060;-80
2022/04/10 08:25:03;;;;;;;10.13;3.20;;;;;;;6.03;76.18;102039.94;5037240;28;20041;-83
2022/04/10 08:27:30;;;;;;;10.50;3.37;;;;;;;6.17;75.24;102029.66;5026739;28;20045;-82
2022/04/10 08:29:57;;;;;;;8.97;3.10;;;;;;;6.36;73.84;102029.47;5035820;28;20036;-81
2022/04/10 08:32:22;;;;;;;10.43;3.17;;;;;;;6.79;73.74;102043.13;5037854;28;20032;-81
2022/04/10 08:34:48;;;;;;;10.97;3.07;;;;;;;7.21;73.07;102034.28;5036948;28;20065;-84
2022/04/10 08:37:13;;;;;;;10.50;3.30;;;;;;;7.72;72.28;102044.28;5037453;28;20373;-81
2022/04/10 08:39:38;;;;;;;7.73;3.10;;;;;;;7.91;67.23;102049.44;5037778;28;20056;-80
2022/04/10 08:42:05;;;;;;;10.77;3.20;;;;;;;8.13;67.01;102049.78;5052650;28;20044;-81
2022/04/10 08:44:32;;;;;;;9.60;2.90;;;;;;;8.31;65.62;102044.25;5037428;28;20056;-84
2022/04/10 08:46:58;;;;;;;12.47;3.30;;;;;;;8.11;65.87;102049.94;5034818;28;20040;-81
2022/04/10 08:49:25;;;;;;;9.00;2.87;;;;;;;8.27;61.65;102046.44;5037234;28;20067;-83
2022/04/10 08:51:52;;;;;;;10.10;2.80;;;;;;;8.36;62.18;102054.53;5035593;28;20468;-83
2022/04/10 08:54:19;;;;;;;10.70;3.00;;;;;;;8.78;63.02;102058.97;5052356;28;20127;-84
2022/04/10 08:56:45;;;;;;;9.20;3.30;;;;;;;9.27;64.44;102052.63;5036966;28;20029;-84
2022/04/10 08:59:11;;;;;;;8.33;2.80;;;;;;;8.88;62.50;102051.53;5037168;28;20043;-81
2022/04/10 09:01:36;;;;;;;11.37;2.67;;;;;;;9.19;61.32;102061.59;5037200;28;20593;-85
2022/04/10 09:04:02;;;;;;;6.40;2.57;;;;;;;9.33;61.07;102054.66;5037001;28;20067;-81
2022/04/10 09:06:27;;;;;;;8.53;2.70;;;;;;;9.52;56.13;102050.69;5036232;28;20565;-83
2022/04/10 09:09:10;;;;;;;8.27;2.70;;;;;;;9.04;59.24;102052.53;5037122;28;20083;-83
2022/04/10 09:11:35;;;;;;;7.40;2.80;;;;;;;9.19;59.29;102047.25;5037731;28;20032;-82
2022/04/10 09:14:01;;;;;;;7.57;3.07;;;;;;;9.37;59.50;102058.69;5036580;28;20037;-82
2022/04/10 09:16:26;;;;;;;8.73;3.10;;;;;;;9.21;59.17;102046.06;5037229;28;20087;-81
2022/04/10 09:19:01;;;;;;;8.73;2.50;;;;;;;9.40;60.54;102062.91;5037077;28;20066;-84
2022/04/10 09:21:32;;;;;;;8.23;2.63;;;;;;;9.18;59.18;102056.38;5036400;28;20037;-82
2022/04/10 09:24:04;;;;;;;5.27;2.30;;;;;;;9.24;58.61;102059.22;5036471;28;20500;-81
2022/04/10 09:26:56;;;;;;;9.77;2.47;;;;;;;9.06;59.86;102055.91;5036177;28;20920;-82
2022/04/10 09:29:24;;;;;;;9.27;2.60;;;;;;;8.81;57.79;102044.28;5035314;28;20232;-81
2022/04/10 09:31:50;;;;;;;5.63;1.97;;;;;;;9.46;54.61;102057.66;5036057;28;20128;-84
2022/04/10 09:34:18;;;;;;;5.40;2.10;;;;;;;9.92;52.92;102047.97;5036165;28;20048;-82
2022/04/10 09:36:45;;;;;;;7.50;2.40;;;;;;;9.77;56.72;102048.72;5036078;28;20408;-82
2022/04/10 09:39:14;;;;;;;7.13;2.30;;;;;;;10.22;60.36;102043.53;5051443;28;20036;-81
2022/04/10 09:41:41;;;;;;;7.67;2.23;;;;;;;10.64;56.29;102050.34;5035928;28;20190;-82
2022/04/10 09:44:12;;;;;;;7.30;2.10;;;;;;;10.71;53.56;102052.34;5034907;28;20484;-82
2022/04/10 09:46:38;;;;;;;4.53;1.93;;;;;;;10.66;49.96;102052.03;5036244;28;20039;-83
2022/04/10 09:49:05;;;;;;;5.50;2.20;;;;;;;10.75;49.00;102064.50;5036416;28;20464;-82
2022/04/10 09:51:30;;;;;;;7.53;2.17;;;;;;;11.11;48.83;102039.38;5035794;28;20844;-82
2022/04/10 09:54:05;;;;;;;5.13;1.90;;;;;;;11.18;49.56;102051.19;5036001;28;20055;-82
2022/04/10 09:56:32;;;;;;;6.93;1.90;;;;;;;11.17;47.64;102051.41;5035835;28;20122;-86
2022/04/10 09:59:01;;;;;;;5.53;1.80;;;;;;;11.35;46.80;102057.28;5034990;28;20025;-86
2022/04/10 10:01:30;;;;;;;4.57;1.70;;;;;;;11.25;46.60;102045.88;5036146;28;20376;-82
2022/04/10 10:03:57;;;;;;;4.87;1.90;;;;;;;11.43;45.47;102050.91;5035995;28;20044;-82
2022/04/10 10:06:23;;;;;;;5.57;1.80;;;;;;;11.42;46.05;102057.38;5035885;28;20071;-84
2022/04/10 10:08:49;;;;;;;5.37;1.70;;;;;;;11.44;44.71;102058.88;5035990;28;20119;-81
2022/04/10 10:11:15;;;;;;;3.47;1.37;;;;;;;11.55;44.86;102046.69;5035440;28;20029;-83
2022/04/10 10:13:41;;;;;;;5.00;1.70;;;;;;;11.38;44.30;102056.06;5035957;28;20037;-81
2022/04/10 10:16:07;;;;;;;3.43;1.40;;;;;;;11.07;43.41;102048.94;5035533;28;20037;-84
2022/04/10 10:18:33;;;;;;;5.10;1.70;;;;;;;10.98;43.55;102040.88;5036070;28;20392;-84
2022/04/10 10:20:58;;;;;;;6.43;1.77;;;;;;;11.22;44.30;102049.81;5032752;28;20033;-84
2022/04/10 10:23:26;;;;;;;7.57;1.73;;;;;;;11.60;46.23;102043.41;5034608;28;20044;-83
2022/04/10 10:25:52;;;;;;;5.80;1.80;;;;;;;11.85;46.92;102038.50;5034033;28;20082;-83
2022/04/10 10:28:24;;;;;;;3.73;1.50;;;;;;;11.81;48.24;102037.19;5031998;28;20032;-85
2022/04/10 10:31:30;;;;;;;4.83;1.60;;;;;;;11.82;45.01;102034.28;5032477;28;20045;-85
2022/04/10 10:34:00;;;;;;;6.83;2.00;;;;;;;11.24;45.14;102030.63;5032607;28;20057;-83
2022/04/10 10:36:27;;;;;;;4.80;1.70;;;;;;;11.30;46.86;102043.41;5032300;28;20368;-83
2022/04/10 10:38:55;;;;;;;4.57;1.90;;;;;;;11.49;50.74;102037.44;5031953;28;20630;-84
2022/04/10 10:41:20;;;;;;;4.33;1.70;;;;;;;11.55;45.08;102041.25;5032904;28;20037;-82
2022/04/10 10:43:46;;;;;;;4.17;1.70;;;;;;;11.97;43.84;102036.16;5036587;28;20053;-82
2022/04/10 10:46:32;;;;;;;5.10;1.83;;;;;;;12.20;43.38;102027.84;5036071;28;20049;-81
2022/04/10 10:49:20;;;;;;;6.47;1.87;;;;;;;11.76;47.08;102039.63;5036668;28;20456;-82
2022/04/10 10:51:50;;;;;;;5.53;1.60;;;;;;;10.30;45.56;102043.47;5036506;28;20037;-84
2022/04/10 10:54:25;;;;;;;3.13;1.43;;;;;;;10.63;47.80;102048.69;5036162;28;20033;-82
2022/04/10 10:56:50;;;;;;;;;;;;;;;11.23;44.51;102042.50;5036767;28;20443;-81
2022/04/10 10:59:43;;;;;;;5.47;1.67;;;;;;;11.12;48.55;102041.09;5036442;28;19925;-80
2022/04/10 11:02:14;;;;;;;2.97;1.50;;;;;;;11.21;45.98;102042.69;5031715;28;20383;-85
2022/04/10 11:04:46;;;;;;;6.83;1.77;;;;;;;11.40;43.02;102043.16;5034494;28;20043;-83
2022/04/10 11:07:25;;;;;;;6.33;2.00;;;;;;;11.96;43.90;102040.72;5035687;28;20032;-83
2022/04/10 11:10:00;;;;;;;5.73;1.87;;;;;;;12.64;48.23;102034.09;5036418;28;20041;-84
2022/04/10 11:12:31;;;;;;;4.57;1.90;;;;;;;12.75;43.36;102032.72;5036366;28;20094;-85
2022/04/10 11:14:59;;;;;;;4.87;1.83;;;;;;;13.00;43.10;102039.38;5035506;28;20362;-84
2022/04/10 11:17:28;;;;;;;3.57;1.60;;;;;;;12.78;45.00;102030.44;5035002;28;20041;-85
2022/04/10 11:19:57;;;;;;;4.50;1.77;;;;;;;12.51;45.82;102032.06;5036663;28;20033;-84
2022/04/10 11:22:31;;;;;;;4.10;1.57;;;;;;;11.64;42.79;102037.41;5036607;28;20388;-84
2022/04/10 11:25:05;;;;;;;5.78;1.63;;;;;;;11.04;44.28;102038.47;5039089;28;20116;-83